sensor_id;sensor_type;location;lat;lon;timestamp;pressure;altitude;pressure_sealevel;temperature;humidity
43701;BME280;58809;47.984;7.964;2023-01-31T00:01:41;98273.88;;;1.18;100.00
43701;BME280;58809;47.984;7.964;2023-01-31T00:04:42;98276.09;;;1.09;100.00
43701;BME280;58809;47.984;7.964;2023-01-31T00:07:44;98266.16;;;1.02;100.00
43701;BME280;58809;47.984;7.964;2023-01-31T00:10:47;98271.34;;;1.02;100.00
43701;BME280;58809;47.984;7.964;2023-01-31T00:13:49;98260.00;;;1.03;100.00
43701;BME280;58809;47.984;7.964;2023-01-31T00:16:50;98263.16;;;1.08;100.00
43701;BME280;58809;47.984;7.964;2023-01-31T00:19:52;98253.56;;;1.08;100.00
43701;BME280;58809;47.984;7.964;2023-01-31T00:22:54;98254.59;;;1.06;100.00
43701;BME280;58809;47.984;7.964;2023-01-31T00:26:06;98253.38;;;0.97;100.00
43701;BME280;58809;47.984;7.964;2023-01-31T00:29:08;98251.66;;;0.83;100.00
43701;BME280;58809;47.984;7.964;2023-01-31T00:32:10;98247.25;;;0.69;100.00
43701;BME280;58809;47.984;7.964;2023-01-31T00:35:11;98252.03;;;0.63;100.00
43701;BME280;58809;47.984;7.964;2023-01-31T00:38:13;98248.13;;;0.55;100.00
43701;BME280;58809;47.984;7.964;2023-01-31T00:41:15;98242.34;;;0.50;100.00
43701;BME280;58809;47.984;7.964;2023-01-31T00:44:16;98236.00;;;0.40;100.00
43701;BME280;58809;47.984;7.964;2023-01-31T00:47:18;98233.50;;;0.24;100.00
43701;BME280;58809;47.984;7.964;2023-01-31T00:50:19;98228.34;;;0.08;100.00
43701;BME280;58809;47.984;7.964;2023-01-31T00:53:21;98232.31;;;-0.01;100.00
43701;BME280;58809;47.984;7.964;2023-01-31T00:56:26;98233.34;;;-0.03;100.00
43701;BME280;58809;47.984;7.964;2023-01-31T00:59:28;98232.09;;;-0.12;100.00
43701;BME280;58809;47.984;7.964;2023-01-31T01:02:30;98220.09;;;-0.29;100.00
43701;BME280;58809;47.984;7.964;2023-01-31T01:05:31;98222.09;;;-0.34;100.00
43701;BME280;58809;47.984;7.964;2023-01-31T01:08:36;98227.16;;;-0.47;100.00
43701;BME280;58809;47.984;7.964;2023-01-31T01:11:38;98225.66;;;-0.51;100.00
43701;BME280;58809;47.984;7.964;2023-01-31T01:14:42;98225.66;;;-0.51;100.00
43701;BME280;58809;47.984;7.964;2023-01-31T01:17:43;98217.44;;;-0.59;100.00
43701;BME280;58809;47.984;7.964;2023-01-31T01:20:45;98226.00;;;-0.57;100.00
43701;BME280;58809;47.984;7.964;2023-01-31T01:23:47;98232.22;;;-0.60;100.00
43701;BME280;58809;47.984;7.964;2023-01-31T01:26:49;98228.44;;;-0.70;100.00
43701;BME280;58809;47.984;7.964;2023-01-31T01:29:50;98232.16;;;-0.74;100.00
43701;BME280;58809;47.984;7.964;2023-01-31T01:32:53;98232.22;;;-0.75;100.00
43701;BME280;58809;47.984;7.964;2023-01-31T01:36:00;98236.94;;;-0.82;100.00
43701;BME280;58809;47.984;7.964;2023-01-31T01:39:04;98231.31;;;-0.90;100.00
43701;BME280;58809;47.984;7.964;2023-01-31T01:42:05;98232.25;;;-0.91;100.00
43701;BME280;58809;47.984;7.964;2023-01-31T01:45:11;98234.50;;;-0.85;100.00
43701;BME280;58809;47.984;7.964;2023-01-31T01:48:16;98233.75;;;-0.87;100.00
43701;BME280;58809;47.984;7.964;2023-01-31T01:51:19;98236.28;;;-0.86;100.00
43701;BME280;58809;47.984;7.964;2023-01-31T01:54:26;98227.38;;;-0.98;100.00
43701;BME280;58809;47.984;7.964;2023-01-31T01:57:33;98226.22;;;-1.08;100.00
43701;BME280;58809;47.984;7.964;2023-01-31T02:00:37;98218.50;;;-1.09;100.00
43701;BME280;58809;47.984;7.964;2023-01-31T02:03:39;98232.66;;;-1.15;100.00
43701;BME280;58809;47.984;7.964;2023-01-31T02:06:42;98239.09;;;-1.22;100.00
43701;BME280;58809;47.984;7.964;2023-01-31T02:09:56;98236.81;;;-1.28;100.00
43701;BME280;58809;47.984;7.964;2023-01-31T02:13:02;98242.66;;;-1.25;100.00
43701;BME280;58809;47.984;7.964;2023-01-31T02:16:05;98234.31;;;-1.30;100.00
43701;BME280;58809;47.984;7.964;2023-01-31T02:19:18;98228.34;;;-1.32;100.00
43701;BME280;58809;47.984;7.964;2023-01-31T02:22:37;98224.00;;;-1.31;100.00
43701;BME280;58809;47.984;7.964;2023-01-31T02:29:33;98232.22;;;-1.39;100.00
43701;BME280;58809;47.984;7.964;2023-01-31T02:32:51;98224.78;;;-1.47;100.00
43701;BME280;58809;47.984;7.964;2023-01-31T02:36:14;98225.66;;;-1.46;100.00
43701;BME280;58809;47.984;7.964;2023-01-31T02:39:33;98232.59;;;-1.47;100.00
43701;BME280;58809;47.984;7.964;2023-01-31T02:42:52;98222.66;;;-1.39;100.00
43701;BME280;58809;47.984;7.964;2023-01-31T02:46:15;98224.78;;;-1.47;100.00
43701;BME280;58809;47.984;7.964;2023-01-31T02:49:41;98232.78;;;-1.50;100.00
43701;BME280;58809;47.984;7.964;2023-01-31T02:53:13;98243.34;;;-1.37;100.00
43701;BME280;58809;47.984;7.964;2023-01-31T02:56:30;98245.56;;;-1.47;100.00
43701;BME280;58809;47.984;7.964;2023-01-31T02:59:32;98252.31;;;-1.43;100.00
43701;BME280;58809;47.984;7.964;2023-01-31T03:02:36;98251.28;;;-1.40;100.00
43701;BME280;58809;47.984;7.964;2023-01-31T03:05:38;98255.66;;;-1.41;100.00
43701;BME280;58809;47.984;7.964;2023-01-31T03:08:42;98256.47;;;-1.40;100.00
43701;BME280;58809;47.984;7.964;2023-01-31T03:16:21;98250.16;;;-1.19;100.00
43701;BME280;58809;47.984;7.964;2023-01-31T03:19:22;98255.00;;;-1.12;100.00
43701;BME280;58809;47.984;7.964;2023-01-31T03:22:31;98260.06;;;-1.09;100.00
43701;BME280;58809;47.984;7.964;2023-01-31T03:25:36;98257.19;;;-1.05;100.00
43701;BME280;58809;47.984;7.964;2023-01-31T03:28:42;98249.59;;;-1.08;100.00
43701;BME280;58809;47.984;7.964;2023-01-31T03:32:05;98260.22;;;-0.97;100.00
43701;BME280;58809;47.984;7.964;2023-01-31T03:35:10;98264.09;;;-0.88;100.00
43701;BME280;58809;47.984;7.964;2023-01-31T03:38:24;98267.69;;;-0.90;100.00
43701;BME280;58809;47.984;7.964;2023-01-31T03:41:41;98263.09;;;-0.85;100.00
43701;BME280;58809;47.984;7.964;2023-01-31T03:47:48;98257.63;;;-0.81;100.00
43701;BME280;58809;47.984;7.964;2023-01-31T03:50:55;98259.97;;;-0.76;100.00
43701;BME280;58809;47.984;7.964;2023-01-31T03:54:12;98261.91;;;-0.80;100.00
43701;BME280;58809;47.984;7.964;2023-01-31T03:57:21;98255.44;;;-0.88;100.00
43701;BME280;58809;47.984;7.964;2023-01-31T04:00:24;98241.84;;;-0.93;100.00
43701;BME280;58809;47.984;7.964;2023-01-31T04:03:38;98240.34;;;-0.98;100.00
43701;BME280;58809;47.984;7.964;2023-01-31T04:06:42;98233.75;;;-1.03;100.00
43701;BME280;58809;47.984;7.964;2023-01-31T04:09:44;98234.91;;;-1.09;100.00
43701;BME280;58809;47.984;7.964;2023-01-31T04:12:46;98240.75;;;-1.21;100.00
43701;BME280;58809;47.984;7.964;2023-01-31T04:15:47;98237.59;;;-1.26;100.00
43701;BME280;58809;47.984;7.964;2023-01-31T04:18:49;98234.88;;;-1.25;100.00
43701;BME280;58809;47.984;7.964;2023-01-31T04:21:52;98235.97;;;-1.29;100.00
43701;BME280;58809;47.984;7.964;2023-01-31T04:24:53;98231.78;;;-1.31;100.00
43701;BME280;58809;47.984;7.964;2023-01-31T04:27:55;98241.81;;;-1.41;100.00
43701;BME280;58809;47.984;7.964;2023-01-31T04:30:56;98247.47;;;-1.50;100.00
43701;BME280;58809;47.984;7.964;2023-01-31T04:33:58;98259.41;;;-1.46;100.00
43701;BME280;58809;47.984;7.964;2023-01-31T04:37:00;98264.75;;;-1.49;100.00
43701;BME280;58809;47.984;7.964;2023-01-31T04:40:01;98266.25;;;-1.45;100.00
43701;BME280;58809;47.984;7.964;2023-01-31T04:43:03;98276.03;;;-1.50;100.00
43701;BME280;58809;47.984;7.964;2023-01-31T04:46:04;98271.94;;;-1.55;100.00
43701;BME280;58809;47.984;7.964;2023-01-31T04:49:06;98264.91;;;-1.52;100.00
43701;BME280;58809;47.984;7.964;2023-01-31T04:52:08;98275.69;;;-1.60;100.00
43701;BME280;58809;47.984;7.964;2023-01-31T04:55:10;98281.69;;;-1.60;100.00
43701;BME280;58809;47.984;7.964;2023-01-31T04:58:12;98278.41;;;-1.63;100.00
43701;BME280;58809;47.984;7.964;2023-01-31T05:01:14;98275.47;;;-1.73;100.00
43701;BME280;58809;47.984;7.964;2023-01-31T05:04:15;98275.31;;;-1.70;100.00
43701;BME280;58809;47.984;7.964;2023-01-31T05:07:17;98275.25;;;-1.68;100.00
43701;BME280;58809;47.984;7.964;2023-01-31T05:10:18;98281.81;;;-1.79;100.00
43701;BME280;58809;47.984;7.964;2023-01-31T05:13:20;98281.28;;;-1.85;100.00
43701;BME280;58809;47.984;7.964;2023-01-31T05:16:21;98283.84;;;-1.85;100.00
43701;BME280;58809;47.984;7.964;2023-01-31T05:19:23;98273.88;;;-1.93;100.00
43701;BME280;58809;47.984;7.964;2023-01-31T05:22:25;98272.22;;;-1.94;100.00
43701;BME280;58809;47.984;7.964;2023-01-31T05:25:27;98267.38;;;-2.02;100.00
43701;BME280;58809;47.984;7.964;2023-01-31T05:28:28;98268.47;;;-2.06;100.00
43701;BME280;58809;47.984;7.964;2023-01-31T05:31:30;98271.97;;;-2.07;100.00
43701;BME280;58809;47.984;7.964;2023-01-31T05:34:32;98270.97;;;-2.22;100.00
43701;BME280;58809;47.984;7.964;2023-01-31T05:37:33;98276.00;;;-2.19;100.00
43701;BME280;58809;47.984;7.964;2023-01-31T05:40:36;98267.84;;;-2.28;100.00
43701;BME280;58809;47.984;7.964;2023-01-31T05:43:37;98275.06;;;-2.35;100.00
43701;BME280;58809;47.984;7.964;2023-01-31T05:46:39;98273.00;;;-2.46;100.00
43701;BME280;58809;47.984;7.964;2023-01-31T05:49:41;98277.53;;;-2.51;100.00
43701;BME280;58809;47.984;7.964;2023-01-31T05:52:42;98266.28;;;-2.50;100.00
43701;BME280;58809;47.984;7.964;2023-01-31T05:55:44;98265.59;;;-2.54;100.00
43701;BME280;58809;47.984;7.964;2023-01-31T05:58:46;98271.59;;;-2.53;100.00
43701;BME280;58809;47.984;7.964;2023-01-31T06:01:51;98272.28;;;-2.49;100.00
43701;BME280;58809;47.984;7.964;2023-01-31T06:04:52;98273.34;;;-2.54;100.00
43701;BME280;58809;47.984;7.964;2023-01-31T06:07:54;98270.84;;;-2.55;100.00
43701;BME280;58809;47.984;7.964;2023-01-31T06:10:55;98280.44;;;-2.57;100.00
43701;BME280;58809;47.984;7.964;2023-01-31T06:13:57;98279.53;;;-2.56;100.00
43701;BME280;58809;47.984;7.964;2023-01-31T06:16:59;98276.56;;;-2.48;100.00
43701;BME280;58809;47.984;7.964;2023-01-31T06:20:02;98285.41;;;-2.53;100.00
43701;BME280;58809;47.984;7.964;2023-01-31T06:23:04;98295.22;;;-2.59;100.00
43701;BME280;58809;47.984;7.964;2023-01-31T06:26:05;98295.22;;;-2.59;100.00
43701;BME280;58809;47.984;7.964;2023-01-31T06:29:08;98301.94;;;-2.55;100.00
43701;BME280;58809;47.984;7.964;2023-01-31T06:32:09;98302.94;;;-2.58;100.00
43701;BME280;58809;47.984;7.964;2023-01-31T06:35:11;98304.47;;;-2.54;100.00
43701;BME280;58809;47.984;7.964;2023-01-31T06:38:13;98302.38;;;-2.45;100.00
43701;BME280;58809;47.984;7.964;2023-01-31T06:41:20;98310.41;;;-2.52;100.00
43701;BME280;58809;47.984;7.964;2023-01-31T06:44:21;98306.06;;;-2.51;100.00
43701;BME280;58809;47.984;7.964;2023-01-31T06:47:23;98310.63;;;-2.56;100.00
43701;BME280;58809;47.984;7.964;2023-01-31T06:50:24;98305.66;;;-2.61;100.00
43701;BME280;58809;47.984;7.964;2023-01-31T06:53:26;98308.25;;;-2.61;100.00
43701;BME280;58809;47.984;7.964;2023-01-31T06:56:27;98304.56;;;-2.74;100.00
43701;BME280;58809;47.984;7.964;2023-01-31T06:59:29;98307.53;;;-2.64;100.00
43701;BME280;58809;47.984;7.964;2023-01-31T07:02:30;98305.94;;;-2.67;100.00
43701;BME280;58809;47.984;7.964;2023-01-31T07:05:32;98303.38;;;-2.67;100.00
43701;BME280;58809;47.984;7.964;2023-01-31T07:08:34;98305.31;;;-2.72;100.00
43701;BME280;58809;47.984;7.964;2023-01-31T07:11:37;98303.63;;;-2.73;100.00
43701;BME280;58809;47.984;7.964;2023-01-31T07:14:39;98305.25;;;-2.71;100.00
43701;BME280;58809;47.984;7.964;2023-01-31T07:17:40;98301.84;;;-2.71;100.00
43701;BME280;58809;47.984;7.964;2023-01-31T07:20:42;98308.38;;;-2.64;100.00
43701;BME280;58809;47.984;7.964;2023-01-31T07:23:43;98292.13;;;-2.67;100.00
43701;BME280;58809;47.984;7.964;2023-01-31T07:26:45;98299.34;;;-2.55;100.00
43701;BME280;58809;47.984;7.964;2023-01-31T07:29:47;98297.38;;;-2.50;100.00
43701;BME280;58809;47.984;7.964;2023-01-31T07:32:49;98296.25;;;-2.44;100.00
43701;BME280;58809;47.984;7.964;2023-01-31T07:35:50;98304.16;;;-2.47;100.00
43701;BME280;58809;47.984;7.964;2023-01-31T07:38:53;98302.63;;;-2.52;100.00
43701;BME280;58809;47.984;7.964;2023-01-31T07:41:55;98309.16;;;-2.25;100.00
43701;BME280;58809;47.984;7.964;2023-01-31T07:44:57;98321.16;;;-2.05;100.00
43701;BME280;58809;47.984;7.964;2023-01-31T07:48:17;98316.31;;;-1.94;100.00
43701;BME280;58809;47.984;7.964;2023-01-31T07:51:23;98324.63;;;-1.87;100.00
43701;BME280;58809;47.984;7.964;2023-01-31T07:54:25;98324.47;;;-1.84;100.00
43701;BME280;58809;47.984;7.964;2023-01-31T07:57:30;98323.00;;;-1.72;100.00
43701;BME280;58809;47.984;7.964;2023-01-31T08:00:32;98329.28;;;-1.59;100.00
43701;BME280;58809;47.984;7.964;2023-01-31T08:03:52;98326.91;;;-1.46;100.00
43701;BME280;58809;47.984;7.964;2023-01-31T08:06:54;98329.94;;;-1.38;100.00
43701;BME280;58809;47.984;7.964;2023-01-31T08:09:56;98329.38;;;-1.27;100.00
43701;BME280;58809;47.984;7.964;2023-01-31T08:12:58;98313.59;;;-1.23;100.00
43701;BME280;58809;47.984;7.964;2023-01-31T08:16:00;98329.34;;;-1.10;100.00
43701;BME280;58809;47.984;7.964;2023-01-31T08:19:02;98335.81;;;-1.01;100.00
43701;BME280;58809;47.984;7.964;2023-01-31T08:22:04;98340.50;;;-0.92;100.00
43701;BME280;58809;47.984;7.964;2023-01-31T08:25:05;98344.91;;;-0.76;100.00
43701;BME280;58809;47.984;7.964;2023-01-31T08:28:07;98345.03;;;-0.62;100.00
43701;BME280;58809;47.984;7.964;2023-01-31T08:31:12;98346.03;;;-0.49;100.00
43701;BME280;58809;47.984;7.964;2023-01-31T08:34:14;98336.03;;;-0.41;100.00
43701;BME280;58809;47.984;7.964;2023-01-31T08:37:16;98336.84;;;-0.24;100.00
43701;BME280;58809;47.984;7.964;2023-01-31T08:40:18;98339.69;;;-0.13;100.00
43701;BME280;58809;47.984;7.964;2023-01-31T08:43:20;98333.06;;;-0.03;100.00
43701;BME280;58809;47.984;7.964;2023-01-31T08:46:26;98326.34;;;0.09;100.00
43701;BME280;58809;47.984;7.964;2023-01-31T08:49:31;98330.91;;;0.20;100.00
43701;BME280;58809;47.984;7.964;2023-01-31T08:52:36;98313.91;;;0.29;100.00
43701;BME280;58809;47.984;7.964;2023-01-31T08:55:37;98308.00;;;0.41;100.00
43701;BME280;58809;47.984;7.964;2023-01-31T08:58:41;98308.94;;;0.54;100.00
43701;BME280;58809;47.984;7.964;2023-01-31T09:01:42;98309.69;;;0.71;100.00
43701;BME280;58809;47.984;7.964;2023-01-31T09:04:46;98311.41;;;0.86;100.00
43701;BME280;58809;47.984;7.964;2023-01-31T09:07:48;98305.97;;;1.04;99.58
43701;BME280;58809;47.984;7.964;2023-01-31T09:10:53;98306.72;;;1.20;97.70
43701;BME280;58809;47.984;7.964;2023-01-31T09:13:55;98306.31;;;1.26;96.40
43701;BME280;58809;47.984;7.964;2023-01-31T09:16:57;98303.91;;;1.38;94.82
43701;BME280;58809;47.984;7.964;2023-01-31T09:19:58;98314.75;;;1.59;93.38
43701;BME280;58809;47.984;7.964;2023-01-31T09:23:02;98317.50;;;1.70;91.97
43701;BME280;58809;47.984;7.964;2023-01-31T09:26:04;98321.94;;;1.82;91.16
43701;BME280;58809;47.984;7.964;2023-01-31T09:29:05;98316.28;;;1.76;92.12
43701;BME280;58809;47.984;7.964;2023-01-31T09:32:07;98320.56;;;1.77;93.36
43701;BME280;58809;47.984;7.964;2023-01-31T09:35:08;98318.88;;;1.76;94.53
43701;BME280;58809;47.984;7.964;2023-01-31T09:38:10;98308.47;;;1.88;94.72
43701;BME280;58809;47.984;7.964;2023-01-31T09:41:17;98309.84;;;1.94;93.96
43701;BME280;58809;47.984;7.964;2023-01-31T09:44:31;98307.47;;;1.91;93.42
43701;BME280;58809;47.984;7.964;2023-01-31T09:47:40;98308.56;;;2.14;93.43
43701;BME280;58809;47.984;7.964;2023-01-31T09:50:50;98301.50;;;2.29;91.64
43701;BME280;58809;47.984;7.964;2023-01-31T09:53:56;98292.72;;;2.30;90.75
43701;BME280;58809;47.984;7.964;2023-01-31T09:57:18;98299.75;;;2.42;89.91
43701;BME280;58809;47.984;7.964;2023-01-31T10:07:44;98299.22;;;2.88;85.39
43701;BME280;58809;47.984;7.964;2023-01-31T10:10:58;98304.16;;;3.06;84.19
43701;BME280;58809;47.984;7.964;2023-01-31T10:14:24;98304.59;;;3.24;83.55
43701;BME280;58809;47.984;7.964;2023-01-31T10:17:52;98307.50;;;3.45;81.89
43701;BME280;58809;47.984;7.964;2023-01-31T10:21:15;98315.22;;;3.59;79.54
43701;BME280;58809;47.984;7.964;2023-01-31T10:24:40;98314.66;;;3.91;77.23
43701;BME280;58809;47.984;7.964;2023-01-31T10:27:48;98312.69;;;4.06;76.88
43701;BME280;58809;47.984;7.964;2023-01-31T10:30:57;98316.00;;;4.32;75.99
43701;BME280;58809;47.984;7.964;2023-01-31T10:34:08;98310.72;;;4.56;74.69
43701;BME280;58809;47.984;7.964;2023-01-31T10:40:48;98306.97;;;5.06;73.41
43701;BME280;58809;47.984;7.964;2023-01-31T10:43:59;98308.75;;;5.28;72.40
43701;BME280;58809;47.984;7.964;2023-01-31T10:47:11;98301.72;;;5.06;71.55
43701;BME280;58809;47.984;7.964;2023-01-31T10:56:48;98271.63;;;4.53;71.90
43701;BME280;58809;47.984;7.964;2023-01-31T10:59:51;98286.78;;;4.61;71.00
43701;BME280;58809;47.984;7.964;2023-01-31T11:02:54;98272.91;;;4.36;70.72
43701;BME280;58809;47.984;7.964;2023-01-31T11:05:56;98265.59;;;4.17;71.58
43701;BME280;58809;47.984;7.964;2023-01-31T11:09:00;98271.50;;;4.08;72.00
43701;BME280;58809;47.984;7.964;2023-01-31T11:12:04;98282.50;;;4.13;71.79
43701;BME280;58809;47.984;7.964;2023-01-31T11:15:18;98282.72;;;4.46;70.60
43701;BME280;58809;47.984;7.964;2023-01-31T11:18:35;98291.53;;;4.56;68.98
43701;BME280;58809;47.984;7.964;2023-01-31T11:21:38;98279.19;;;4.69;69.04
43701;BME280;58809;47.984;7.964;2023-01-31T11:24:46;98273.56;;;4.74;68.30
43701;BME280;58809;47.984;7.964;2023-01-31T11:27:52;98282.72;;;4.68;68.82
43701;BME280;58809;47.984;7.964;2023-01-31T11:30:54;98274.16;;;4.77;68.89
43701;BME280;58809;47.984;7.964;2023-01-31T11:34:01;98274.28;;;4.87;67.52
43701;BME280;58809;47.984;7.964;2023-01-31T11:37:08;98298.84;;;4.75;67.84
43701;BME280;58809;47.984;7.964;2023-01-31T11:46:19;98310.97;;;4.65;67.98
43701;BME280;58809;47.984;7.964;2023-01-31T11:49:27;98296.44;;;4.72;68.32
43701;BME280;58809;47.984;7.964;2023-01-31T11:52:32;98290.16;;;4.86;68.07
43701;BME280;58809;47.984;7.964;2023-01-31T11:55:36;98298.50;;;5.13;67.41
43701;BME280;58809;47.984;7.964;2023-01-31T11:58:38;98273.78;;;5.27;66.91
43701;BME280;58809;47.984;7.964;2023-01-31T12:01:46;98278.06;;;5.51;65.98
43701;BME280;58809;47.984;7.964;2023-01-31T12:04:49;98283.69;;;5.46;65.89
43701;BME280;58809;47.984;7.964;2023-01-31T12:07:51;98281.56;;;5.17;66.54
43701;BME280;58809;47.984;7.964;2023-01-31T12:10:54;98270.00;;;5.31;66.37
43701;BME280;58809;47.984;7.964;2023-01-31T12:14:08;98266.78;;;5.71;65.82
43701;BME280;58809;47.984;7.964;2023-01-31T12:17:14;98235.66;;;5.67;64.88
43701;BME280;58809;47.984;7.964;2023-01-31T12:20:22;98231.03;;;5.59;64.89
43701;BME280;58809;47.984;7.964;2023-01-31T12:23:34;98239.97;;;5.56;65.24
43701;BME280;58809;47.984;7.964;2023-01-31T12:26:56;98224.72;;;5.50;65.67
43701;BME280;58809;47.984;7.964;2023-01-31T12:30:24;98214.56;;;5.57;65.43
43701;BME280;58809;47.984;7.964;2023-01-31T12:41:10;98197.75;;;5.48;64.59
43701;BME280;58809;47.984;7.964;2023-01-31T12:44:37;98195.34;;;5.56;65.13
43701;BME280;58809;47.984;7.964;2023-01-31T12:50:58;98201.91;;;5.51;64.67
43701;BME280;58809;47.984;7.964;2023-01-31T13:06:58;98208.03;;;5.51;65.36
43701;BME280;58809;47.984;7.964;2023-01-31T13:10:04;98201.56;;;5.55;65.07
43701;BME280;58809;47.984;7.964;2023-01-31T13:13:16;98195.00;;;5.50;64.87
43701;BME280;58809;47.984;7.964;2023-01-31T13:19:53;98180.44;;;5.46;64.85
43701;BME280;58809;47.984;7.964;2023-01-31T13:22:59;98175.34;;;5.44;65.94
43701;BME280;58809;47.984;7.964;2023-01-31T13:26:12;98193.91;;;5.52;65.01
43701;BME280;58809;47.984;7.964;2023-01-31T13:29:24;98194.44;;;5.46;64.87
43701;BME280;58809;47.984;7.964;2023-01-31T13:32:39;98200.25;;;5.06;65.85
43701;BME280;58809;47.984;7.964;2023-01-31T13:35:43;98193.56;;;4.91;66.95
43701;BME280;58809;47.984;7.964;2023-01-31T13:38:45;98186.28;;;4.94;67.24
43701;BME280;58809;47.984;7.964;2023-01-31T13:41:47;98180.47;;;5.02;66.73
43701;BME280;58809;47.984;7.964;2023-01-31T13:44:48;98182.94;;;5.04;67.15
43701;BME280;58809;47.984;7.964;2023-01-31T13:47:59;98178.28;;;5.07;66.56
43701;BME280;58809;47.984;7.964;2023-01-31T13:51:09;98176.97;;;5.13;66.56
43701;BME280;58809;47.984;7.964;2023-01-31T13:54:22;98185.91;;;5.10;66.31
43701;BME280;58809;47.984;7.964;2023-01-31T13:57:29;98181.75;;;5.08;66.98
43701;BME280;58809;47.984;7.964;2023-01-31T14:00:37;98174.09;;;5.16;66.59
43701;BME280;58809;47.984;7.964;2023-01-31T14:07:19;98153.56;;;5.21;67.11
43701;BME280;58809;47.984;7.964;2023-01-31T14:10:27;98154.19;;;5.78;65.34
43701;BME280;58809;47.984;7.964;2023-01-31T14:16:41;98155.28;;;5.75;65.62
43701;BME280;58809;47.984;7.964;2023-01-31T14:29:42;98150.91;;;5.65;65.51
43701;BME280;58809;47.984;7.964;2023-01-31T14:32:47;98137.38;;;5.48;65.93
43701;BME280;58809;47.984;7.964;2023-01-31T14:35:59;98139.50;;;5.22;66.47
43701;BME280;58809;47.984;7.964;2023-01-31T14:43:07;98134.31;;;4.99;66.86
43701;BME280;58809;47.984;7.964;2023-01-31T14:45:49;98138.22;;;5.05;66.58
43701;BME280;58809;47.984;7.964;2023-01-31T14:55:53;98133.25;;;4.91;66.96
43701;BME280;58809;47.984;7.964;2023-01-31T14:58:59;98140.41;;;4.89;66.39
43701;BME280;58809;47.984;7.964;2023-01-31T15:08:44;98132.53;;;4.89;66.54
43701;BME280;58809;47.984;7.964;2023-01-31T15:11:50;98133.28;;;4.68;68.30
43701;BME280;58809;47.984;7.964;2023-01-31T15:14:56;98140.94;;;4.60;68.97
43701;BME280;58809;47.984;7.964;2023-01-31T15:18:04;98143.31;;;4.52;68.71
43701;BME280;58809;47.984;7.964;2023-01-31T15:21:10;98132.84;;;4.40;69.60
43701;BME280;58809;47.984;7.964;2023-01-31T15:24:26;98129.50;;;4.38;70.14
43701;BME280;58809;47.984;7.964;2023-01-31T15:27:31;98141.06;;;4.47;70.07
43701;BME280;58809;47.984;7.964;2023-01-31T15:30:36;98134.84;;;4.59;69.24
43701;BME280;58809;47.984;7.964;2023-01-31T15:33:44;98140.09;;;4.71;69.64
43701;BME280;58809;47.984;7.964;2023-01-31T15:36:59;98127.56;;;4.74;69.43
43701;BME280;58809;47.984;7.964;2023-01-31T15:40:17;98124.22;;;4.72;69.45
43701;BME280;58809;47.984;7.964;2023-01-31T15:43:23;98122.91;;;4.67;69.51
43701;BME280;58809;47.984;7.964;2023-01-31T15:46:28;98107.69;;;4.60;69.44
43701;BME280;58809;47.984;7.964;2023-01-31T15:49:41;98113.16;;;4.57;69.28
43701;BME280;58809;47.984;7.964;2023-01-31T15:52:43;98119.97;;;4.60;69.90
43701;BME280;58809;47.984;7.964;2023-01-31T15:55:45;98117.69;;;4.55;69.31
43701;BME280;58809;47.984;7.964;2023-01-31T15:58:50;98101.00;;;4.45;69.81
43701;BME280;58809;47.984;7.964;2023-01-31T16:01:57;98098.78;;;4.40;70.49
43701;BME280;58809;47.984;7.964;2023-01-31T16:05:04;98093.53;;;4.29;70.85
43701;BME280;58809;47.984;7.964;2023-01-31T16:08:19;98088.66;;;4.24;70.85
43701;BME280;58809;47.984;7.964;2023-01-31T16:11:22;98092.47;;;4.20;71.43
43701;BME280;58809;47.984;7.964;2023-01-31T16:14:27;98088.53;;;4.15;71.67
43701;BME280;58809;47.984;7.964;2023-01-31T16:17:29;98084.50;;;4.11;71.94
43701;BME280;58809;47.984;7.964;2023-01-31T16:23:41;98108.91;;;4.11;72.40
43701;BME280;58809;47.984;7.964;2023-01-31T16:29:54;98116.53;;;4.14;72.38
43701;BME280;58809;47.984;7.964;2023-01-31T16:32:59;98112.00;;;4.16;72.54
43701;BME280;58809;47.984;7.964;2023-01-31T16:36:10;98137.38;;;4.16;72.83
43701;BME280;58809;47.984;7.964;2023-01-31T16:39:36;98143.31;;;4.18;72.05
43701;BME280;58809;47.984;7.964;2023-01-31T16:42:39;98156.41;;;4.18;72.70
43701;BME280;58809;47.984;7.964;2023-01-31T16:45:56;98150.56;;;4.14;72.24
43701;BME280;58809;47.984;7.964;2023-01-31T16:49:03;98156.88;;;4.12;72.68
43701;BME280;58809;47.984;7.964;2023-01-31T16:52:27;98152.59;;;4.11;72.92
43701;BME280;58809;47.984;7.964;2023-01-31T16:55:28;98165.44;;;4.14;73.64
43701;BME280;58809;47.984;7.964;2023-01-31T16:58:56;98173.78;;;4.08;73.91
43701;BME280;58809;47.984;7.964;2023-01-31T17:02:20;98173.06;;;4.05;74.86
43701;BME280;58809;47.984;7.964;2023-01-31T17:05:40;98200.91;;;4.07;75.25
43701;BME280;58809;47.984;7.964;2023-01-31T17:08:45;98225.44;;;4.05;75.40
43701;BME280;58809;47.984;7.964;2023-01-31T17:11:47;98226.16;;;4.08;75.79
43701;BME280;58809;47.984;7.964;2023-01-31T17:14:49;98212.22;;;4.07;76.24
43701;BME280;58809;47.984;7.964;2023-01-31T17:17:53;98206.03;;;4.08;76.64
43701;BME280;58809;47.984;7.964;2023-01-31T17:20:54;98209.84;;;4.04;76.95
43701;BME280;58809;47.984;7.964;2023-01-31T17:23:56;98210.19;;;3.99;77.94
43701;BME280;58809;47.984;7.964;2023-01-31T17:26:57;98211.13;;;3.98;78.25
43701;BME280;58809;47.984;7.964;2023-01-31T17:29:59;98212.81;;;3.99;77.86
43701;BME280;58809;47.984;7.964;2023-01-31T17:33:00;98202.19;;;4.01;78.57
43701;BME280;58809;47.984;7.964;2023-01-31T17:36:02;98218.78;;;4.01;78.76
43701;BME280;58809;47.984;7.964;2023-01-31T17:39:04;98204.97;;;3.99;78.69
43701;BME280;58809;47.984;7.964;2023-01-31T17:42:14;98203.28;;;3.98;79.24
43701;BME280;58809;47.984;7.964;2023-01-31T17:45:18;98202.34;;;3.99;79.80
43701;BME280;58809;47.984;7.964;2023-01-31T17:48:20;98194.47;;;3.99;80.23
43701;BME280;58809;47.984;7.964;2023-01-31T17:51:27;98188.75;;;3.94;80.27
43701;BME280;58809;47.984;7.964;2023-01-31T17:54:29;98196.03;;;4.02;80.05
43701;BME280;58809;47.984;7.964;2023-01-31T17:57:30;98189.72;;;4.04;80.07
43701;BME280;58809;47.984;7.964;2023-01-31T18:00:32;98194.47;;;3.99;80.66
43701;BME280;58809;47.984;7.964;2023-01-31T18:03:33;98203.28;;;3.98;80.59
43701;BME280;58809;47.984;7.964;2023-01-31T18:06:35;98209.22;;;4.00;81.13